Deer Creek, Indiana
Current Conditions -  °F | °C
As of 9:35 PM on Friday 31 Oct 2014 (Local Time) from KGGP Reporting Station
Broken Clouds Broken Clouds  
Wind Chill: -5°   Ceiling: 4300
Heat Index:   Visibility: 10mi
Dew Point: -2°   Wind: 20mph
Humidity: 81%   Direction: 360°N
Pressure: 30.19"   Gusts: 32mph
Location:  40.5923°N, 86.4903°W
Report Text: KGGP 010135Z AUTO 36017G28KT 10SM BKN043 01/M02 A3019 RMK AO2
Loading
Personal Weather Stations






























Interactive Weather Map
Tropical Storm Tracking
New forecast layout! Learn more

10-Day Weather Forecast

Advertisements
Track Severe Weather on mobile